createdAt,value
2022-10-02T00:01:17.242Z,5.63
2022-10-02T00:03:45.964Z,5.07
2022-10-02T00:06:22.222Z,6.05
2022-10-02T00:08:53.767Z,5.18
2022-10-02T00:11:30.369Z,5.38
2022-10-02T00:14:02.635Z,4.75
2022-10-02T00:16:33.685Z,4.50
2022-10-02T00:19:01.814Z,5.05
2022-10-02T00:21:40.791Z,4.82
2022-10-02T00:24:14.709Z,5.38
2022-10-02T00:26:52.796Z,5.22
2022-10-02T00:29:54.381Z,5.43
2022-10-02T00:32:42.162Z,4.68
2022-10-02T00:35:35.217Z,5.35
2022-10-02T00:38:24.836Z,4.80
2022-10-02T00:41:10.358Z,4.68
2022-10-02T00:43:59.242Z,4.30
2022-10-02T00:47:05.086Z,5.22
2022-10-02T00:49:52.735Z,4.68
2022-10-02T00:52:57.328Z,5.60
2022-10-02T00:55:37.655Z,5.50
2022-10-02T00:58:04.430Z,4.28
2022-10-02T01:00:31.853Z,4.45
2022-10-02T01:03:29.757Z,4.15
2022-10-02T01:05:56.486Z,4.97
2022-10-02T01:08:23.337Z,4.15
2022-10-02T01:10:50.225Z,4.40
2022-10-02T01:13:17.082Z,4.28
2022-10-02T01:15:51.375Z,4.10
2022-10-02T01:18:18.956Z,3.70
2022-10-02T01:20:48.225Z,4.00
2022-10-02T01:23:28.309Z,5.53
2022-10-02T01:25:55.269Z,3.95
2022-10-02T01:28:23.402Z,3.92
2022-10-02T01:30:55.053Z,3.65
2022-10-02T01:33:23.336Z,4.60
2022-10-02T01:35:50.804Z,3.90
2022-10-02T01:38:20.619Z,4.15
2022-10-02T01:40:47.725Z,4.45
2022-10-02T01:43:43.446Z,4.13
2022-10-02T01:46:33.097Z,3.65
2022-10-02T01:49:10.850Z,3.30
2022-10-02T01:52:08.650Z,3.90
2022-10-02T01:54:57.383Z,4.55
2022-10-02T01:57:39.229Z,4.30
2022-10-02T02:00:19.253Z,4.20
2022-10-02T02:02:55.994Z,4.40
2022-10-02T02:05:38.100Z,3.47
2022-10-02T02:08:52.697Z,4.20
2022-10-02T02:11:21.648Z,4.70
2022-10-02T02:14:11.892Z,3.90
2022-10-02T02:16:43.015Z,4.60
2022-10-02T02:19:16.526Z,4.10
2022-10-02T02:21:54.031Z,3.50
2022-10-02T02:24:36.697Z,3.75
2022-10-02T02:27:05.446Z,4.05
2022-10-02T02:29:39.847Z,3.10
2022-10-02T02:32:11.208Z,3.10
2022-10-02T02:34:49.366Z,3.42
2022-10-02T02:37:20.572Z,3.72
2022-10-02T02:39:56.644Z,3.10
2022-10-02T02:42:29.194Z,3.55
2022-10-02T02:45:11.049Z,3.22
2022-10-02T02:47:40.334Z,3.70
2022-10-02T02:50:12.451Z,3.40
2022-10-02T02:52:50.260Z,3.58
2022-10-02T02:55:32.882Z,3.92
2022-10-02T02:58:07.817Z,3.30
2022-10-02T03:00:35.048Z,3.30
2022-10-02T03:03:02.292Z,4.25
2022-10-02T03:05:30.902Z,4.15
2022-10-02T03:08:02.845Z,3.60
2022-10-02T03:10:32.453Z,4.03
2022-10-02T03:13:22.305Z,3.50
2022-10-02T03:16:16.786Z,3.60
2022-10-02T03:18:46.720Z,3.33
2022-10-02T03:21:33.278Z,3.92
2022-10-02T03:24:11.622Z,3.20
2022-10-02T03:26:53.000Z,3.33
2022-10-02T03:29:35.725Z,2.97
2022-10-02T03:32:05.145Z,2.80
2022-10-02T03:34:34.000Z,2.13
2022-10-02T03:37:02.539Z,2.78
2022-10-02T03:39:29.587Z,2.95
2022-10-02T03:41:56.886Z,3.08
2022-10-02T03:44:24.012Z,1.95
2022-10-02T03:46:51.203Z,2.15
2022-10-02T03:49:18.221Z,2.50
2022-10-02T03:51:44.981Z,2.47
2022-10-02T03:54:20.459Z,2.83
2022-10-02T03:56:58.385Z,2.63
2022-10-02T03:59:40.281Z,3.03
2022-10-02T04:02:19.319Z,3.42
2022-10-02T04:04:53.634Z,2.83
2022-10-02T04:07:29.071Z,3.00
2022-10-02T04:10:37.267Z,2.80
2022-10-02T04:13:16.658Z,3.22
2022-10-02T04:16:07.927Z,3.25
2022-10-02T04:18:43.494Z,2.75
2022-10-02T04:21:19.934Z,3.70
2022-10-02T04:24:14.665Z,3.50
2022-10-02T04:26:50.826Z,3.50
2022-10-02T04:29:32.486Z,4.10
2022-10-02T04:32:16.180Z,3.53
2022-10-02T04:34:43.525Z,4.00
2022-10-02T04:37:47.008Z,4.47
2022-10-02T04:40:34.996Z,4.50
2022-10-02T04:43:10.963Z,4.28
2022-10-02T04:46:02.375Z,4.15
2022-10-02T04:49:10.353Z,3.97
2022-10-02T04:52:05.407Z,4.35
2022-10-02T04:55:11.297Z,4.25
2022-10-02T04:58:13.095Z,4.43
2022-10-02T05:01:06.411Z,3.67
2022-10-02T05:04:03.886Z,4.03
2022-10-02T05:06:51.510Z,3.30
2022-10-02T05:09:30.437Z,3.90
2022-10-02T05:12:03.487Z,3.15
2022-10-02T05:14:45.055Z,3.97
2022-10-02T05:17:25.793Z,3.42
2022-10-02T05:20:13.655Z,2.75
2022-10-02T05:22:43.505Z,3.20
2022-10-02T05:25:45.647Z,3.72
2022-10-02T05:28:21.915Z,3.72
2022-10-02T05:31:10.123Z,3.47
2022-10-02T05:33:47.515Z,2.70
2022-10-02T05:36:21.947Z,3.45
2022-10-02T05:39:14.086Z,4.43
2022-10-02T05:42:01.878Z,3.95
2022-10-02T05:44:41.117Z,3.03
2022-10-02T05:47:18.239Z,3.40
2022-10-02T05:49:55.828Z,2.70
2022-10-02T05:53:03.651Z,3.78
2022-10-02T05:55:33.348Z,2.83
2022-10-02T06:01:41.104Z,2.88
2022-10-02T06:04:22.307Z,2.53
2022-10-02T06:06:54.311Z,3.10
2022-10-02T06:09:29.214Z,2.95
2022-10-02T06:12:26.562Z,3.00
2022-10-02T06:15:22.248Z,2.53
2022-10-02T06:17:55.846Z,3.00
2022-10-02T06:20:50.100Z,3.03
2022-10-02T06:23:30.922Z,2.70
2022-10-02T06:26:06.898Z,3.03
2022-10-02T06:29:00.524Z,2.53
2022-10-02T06:31:40.700Z,2.83
2022-10-02T06:34:12.869Z,3.00
2022-10-02T06:37:01.759Z,3.67
2022-10-02T06:39:57.224Z,3.45
2022-10-02T06:42:44.201Z,4.45
2022-10-02T06:45:19.478Z,4.28
2022-10-02T06:47:57.582Z,3.60
2022-10-02T06:50:46.130Z,5.53
2022-10-02T06:53:24.820Z,3.70
2022-10-02T06:56:02.588Z,3.85
2022-10-02T06:58:59.732Z,2.90
2022-10-02T07:01:30.105Z,3.00
2022-10-02T07:04:42.339Z,2.83
2022-10-02T07:07:28.078Z,3.08
2022-10-02T07:10:17.608Z,3.50
2022-10-02T07:12:56.470Z,3.58
2022-10-02T07:15:31.477Z,4.22
2022-10-02T07:18:28.496Z,4.88
2022-10-02T07:21:23.234Z,8.48
2022-10-02T07:24:18.676Z,13.27
2022-10-02T07:27:12.067Z,8.07
2022-10-02T07:29:46.939Z,4.82
2022-10-02T07:32:39.087Z,5.28
2022-10-02T07:35:27.493Z,4.50
2022-10-02T07:38:18.939Z,3.65
2022-10-02T07:41:04.149Z,3.60
2022-10-02T07:44:03.446Z,3.22
2022-10-02T07:47:02.346Z,3.17
2022-10-02T07:49:56.048Z,2.75
2022-10-02T07:52:41.044Z,3.40
2022-10-02T07:55:10.840Z,2.90
2022-10-02T07:57:56.541Z,2.60
2022-10-02T08:00:26.606Z,2.83
2022-10-02T08:03:15.940Z,2.72
2022-10-02T08:06:02.116Z,3.38
2022-10-02T08:08:39.890Z,3.03
2022-10-02T08:11:30.416Z,3.60
2022-10-02T08:14:07.554Z,3.30
2022-10-02T08:16:48.951Z,3.22
2022-10-02T08:19:26.924Z,3.47
2022-10-02T08:22:00.818Z,3.20
2022-10-02T08:24:50.464Z,3.38
2022-10-02T08:27:28.946Z,3.08
2022-10-02T08:30:07.023Z,3.70
2022-10-02T08:32:36.818Z,4.55
2022-10-02T08:35:15.609Z,4.90
2022-10-02T08:38:19.970Z,3.15
2022-10-02T08:41:10.894Z,3.40
2022-10-02T08:43:49.229Z,3.13
2022-10-02T08:46:31.960Z,2.50
2022-10-02T08:49:13.215Z,2.50
2022-10-02T08:51:55.337Z,2.72
2022-10-02T08:55:00.942Z,2.58
2022-10-02T08:57:27.778Z,2.13
2022-10-02T09:00:33.738Z,2.35
2022-10-02T09:03:13.027Z,2.50
2022-10-02T09:06:16.663Z,2.50
2022-10-02T09:08:46.446Z,2.25
2022-10-02T09:11:23.927Z,2.33
2022-10-02T09:14:29.910Z,2.47
2022-10-02T09:17:17.851Z,2.05
2022-10-02T09:20:05.839Z,2.35
2022-10-02T09:22:51.740Z,2.65
2022-10-02T09:25:27.110Z,2.22
2022-10-02T09:28:13.712Z,2.72
2022-10-02T09:31:15.937Z,2.60
2022-10-02T09:34:39.654Z,2.42
2022-10-02T09:37:37.478Z,2.85
2022-10-02T09:40:42.848Z,1.88
2022-10-02T09:43:24.472Z,2.63
2022-10-02T09:46:21.761Z,2.60
2022-10-02T09:49:14.564Z,2.05
2022-10-02T09:51:50.393Z,2.00
2022-10-02T09:54:37.054Z,2.50
2022-10-02T09:57:21.871Z,2.30
2022-10-02T10:00:00.394Z,2.53
2022-10-02T10:02:38.924Z,3.47
2022-10-02T10:05:27.184Z,2.75
2022-10-02T10:08:18.500Z,2.45
2022-10-02T10:11:07.803Z,2.95
2022-10-02T10:13:55.963Z,3.10
2022-10-02T10:16:52.106Z,2.50
2022-10-02T10:19:53.743Z,2.63
2022-10-02T10:22:35.298Z,2.67
2022-10-02T10:25:33.019Z,2.65
2022-10-02T10:28:33.897Z,2.25
2022-10-02T10:31:31.515Z,3.08
2022-10-02T10:34:32.078Z,3.03
2022-10-02T10:37:24.856Z,2.83
2022-10-02T10:40:09.880Z,2.63
2022-10-02T10:43:07.912Z,3.45
2022-10-02T10:45:47.036Z,2.53
2022-10-02T10:48:49.339Z,2.63
2022-10-02T10:51:31.609Z,3.03
2022-10-02T10:54:22.887Z,2.55
2022-10-02T10:57:12.180Z,3.08
2022-10-02T10:59:48.449Z,3.10
2022-10-02T11:02:37.265Z,2.80
2022-10-02T11:05:07.243Z,3.58
2022-10-02T11:07:56.789Z,3.80
2022-10-02T11:10:29.729Z,4.28
2022-10-02T11:13:26.235Z,4.82
2022-10-02T11:16:13.159Z,4.28
2022-10-02T11:18:43.652Z,3.90
2022-10-02T11:21:10.609Z,4.60
2022-10-02T11:24:04.903Z,5.38
2022-10-02T11:26:46.473Z,5.43
2022-10-02T11:30:09.668Z,5.68
2022-10-02T11:33:01.527Z,4.95
2022-10-02T11:35:50.107Z,5.97
2022-10-02T11:38:42.306Z,5.82
2022-10-02T11:41:20.953Z,4.88
2022-10-02T11:44:05.646Z,5.68
2022-10-02T11:47:06.789Z,5.47
2022-10-02T11:50:00.219Z,5.18
2022-10-02T11:52:38.181Z,5.10
2022-10-02T11:55:37.807Z,5.45
2022-10-02T11:58:26.618Z,5.25
2022-10-02T12:01:11.283Z,5.63
2022-10-02T12:03:49.703Z,5.50
2022-10-02T12:06:51.449Z,5.13
2022-10-02T12:09:27.414Z,4.85
2022-10-02T12:12:23.406Z,5.80
2022-10-02T12:14:55.571Z,5.57
2022-10-02T12:17:53.422Z,5.20
2022-10-02T12:20:45.279Z,5.40
2022-10-02T12:23:47.520Z,5.18
2022-10-02T12:26:52.057Z,5.47
2022-10-02T12:29:25.491Z,5.80
2022-10-02T12:32:37.593Z,5.57
2022-10-02T12:35:26.002Z,6.15
2022-10-02T12:38:16.360Z,6.07
2022-10-02T12:41:20.087Z,6.15
2022-10-02T12:44:17.280Z,6.25
2022-10-02T12:47:03.306Z,6.75
2022-10-02T12:49:41.567Z,6.47
2022-10-02T12:52:21.323Z,7.03
2022-10-02T12:55:06.728Z,7.32
2022-10-02T12:57:58.843Z,6.85
2022-10-02T13:00:35.481Z,7.22
2022-10-02T13:03:14.912Z,7.82
2022-10-02T13:05:46.941Z,7.32
2022-10-02T13:08:32.500Z,7.90
2022-10-02T13:11:08.330Z,8.18
2022-10-02T13:14:02.705Z,8.63
2022-10-02T13:16:45.225Z,8.35
2022-10-02T13:19:23.615Z,9.25
2022-10-02T13:21:59.170Z,8.30
2022-10-02T13:24:31.612Z,8.50
2022-10-02T13:27:31.696Z,9.35
2022-10-02T13:30:19.765Z,10.38
2022-10-02T13:33:17.739Z,12.10
2022-10-02T13:36:02.992Z,12.02
2022-10-02T13:38:58.492Z,12.10
2022-10-02T13:41:46.972Z,12.23
2022-10-02T13:44:44.628Z,12.75
2022-10-02T13:47:25.694Z,12.98
2022-10-02T13:50:17.762Z,12.55
2022-10-02T13:53:16.060Z,12.80
2022-10-02T13:55:48.147Z,11.77
2022-10-02T13:58:27.791Z,11.80
2022-10-02T14:01:26.825Z,12.27
2022-10-02T14:04:27.965Z,11.85
2022-10-02T14:07:13.756Z,9.95
2022-10-02T14:10:05.136Z,10.25
2022-10-02T14:13:06.361Z,9.43
2022-10-02T14:15:57.013Z,10.27
2022-10-02T14:18:38.427Z,9.30
2022-10-02T14:22:02.933Z,9.30
2022-10-02T14:25:03.975Z,8.73
2022-10-02T14:28:04.540Z,8.32
2022-10-02T14:30:37.611Z,7.97
2022-10-02T14:33:11.842Z,7.43
2022-10-02T14:36:00.791Z,7.07
2022-10-02T14:38:42.620Z,7.85
2022-10-02T14:41:35.940Z,7.25
2022-10-02T14:44:10.754Z,8.10
2022-10-02T14:47:15.401Z,8.07
2022-10-02T14:49:54.990Z,7.75
2022-10-02T14:52:48.184Z,7.93
2022-10-02T14:55:34.488Z,7.05
2022-10-02T14:58:32.130Z,7.68
2022-10-02T15:01:16.828Z,6.55
2022-10-02T15:04:08.026Z,6.97
2022-10-02T15:06:47.422Z,6.50
2022-10-02T15:09:27.044Z,6.95
2022-10-02T15:12:06.358Z,6.60
2022-10-02T15:14:54.409Z,6.78
2022-10-02T15:18:17.403Z,6.82
2022-10-02T15:21:01.859Z,4.47
2022-10-02T15:23:48.104Z,3.45
2022-10-02T15:26:30.848Z,3.25
2022-10-02T15:29:14.597Z,3.00
2022-10-02T15:32:01.749Z,3.00
2022-10-02T15:34:52.288Z,3.13
2022-10-02T15:37:35.702Z,2.72
2022-10-02T15:40:08.038Z,2.97
2022-10-02T15:42:50.073Z,2.47
2022-10-02T15:45:38.855Z,2.30
2022-10-02T15:48:33.893Z,2.80
2022-10-02T15:51:18.588Z,2.50
2022-10-02T15:54:04.355Z,2.53
2022-10-02T15:57:01.518Z,2.53
2022-10-02T15:59:53.125Z,2.47
2022-10-02T16:02:32.259Z,2.30
2022-10-02T16:05:15.890Z,1.98
2022-10-02T16:07:51.808Z,2.40
2022-10-02T16:10:41.949Z,2.50
2022-10-02T16:13:30.490Z,3.05
2022-10-02T16:16:26.765Z,2.28
2022-10-02T16:19:28.470Z,3.00
2022-10-02T16:22:22.665Z,2.13
2022-10-02T16:25:06.521Z,2.60
2022-10-02T16:27:46.670Z,2.80
2022-10-02T16:30:17.257Z,2.67
2022-10-02T16:33:16.436Z,2.92
2022-10-02T16:36:30.179Z,2.40
2022-10-02T16:39:09.425Z,2.60
2022-10-02T16:41:43.608Z,3.22
2022-10-02T16:44:26.279Z,2.72
2022-10-02T16:47:05.348Z,3.08
2022-10-02T16:50:09.609Z,3.05
2022-10-02T16:52:52.905Z,2.63
2022-10-02T16:55:45.123Z,2.30
2022-10-02T16:58:29.097Z,2.60
2022-10-02T17:01:02.437Z,2.80
2022-10-02T17:03:38.794Z,2.88
2022-10-02T17:06:27.172Z,3.00
2022-10-02T17:09:03.388Z,3.25
2022-10-02T17:11:45.233Z,2.83
2022-10-02T17:14:23.247Z,3.30
2022-10-02T17:16:56.208Z,3.08
2022-10-02T17:20:04.275Z,5.80
2022-10-02T17:22:40.170Z,24.85
2022-10-02T17:25:29.766Z,8.35
2022-10-02T17:28:06.997Z,8.38
2022-10-02T17:30:52.432Z,5.10
2022-10-02T17:33:21.833Z,3.45
2022-10-02T17:36:12.138Z,3.08
2022-10-02T17:39:03.199Z,3.00
2022-10-02T17:41:57.266Z,2.72
2022-10-02T17:44:45.438Z,3.15
2022-10-02T17:47:19.163Z,2.90
2022-10-02T17:50:02.193Z,2.80
2022-10-02T17:53:21.589Z,3.22
2022-10-02T17:56:32.065Z,3.20
2022-10-02T17:59:27.391Z,3.40
2022-10-02T18:02:09.288Z,3.42
2022-10-02T18:05:00.866Z,3.72
2022-10-02T18:07:42.833Z,3.38
2022-10-02T18:10:12.777Z,3.28
2022-10-02T18:13:01.029Z,4.18
2022-10-02T18:15:58.225Z,4.05
2022-10-02T18:18:34.902Z,3.70
2022-10-02T18:21:32.978Z,2.90
2022-10-02T18:24:41.569Z,3.47
2022-10-02T18:27:26.991Z,4.72
2022-10-02T18:30:12.630Z,4.40
2022-10-02T18:33:14.532Z,4.68
2022-10-02T18:35:47.972Z,3.38
2022-10-02T18:38:52.905Z,3.58
2022-10-02T18:41:28.262Z,3.90
2022-10-02T18:44:03.702Z,3.95
2022-10-02T18:46:50.526Z,3.30
2022-10-02T18:49:26.469Z,3.28
2022-10-02T18:51:53.507Z,3.45
2022-10-02T18:54:29.612Z,3.65
2022-10-02T18:57:07.848Z,3.60
2022-10-02T18:59:55.251Z,4.22
2022-10-02T19:02:51.374Z,4.53
2022-10-02T19:05:24.335Z,3.97
2022-10-02T19:07:51.986Z,4.15
2022-10-02T19:10:29.621Z,4.13
2022-10-02T19:13:16.434Z,4.82
2022-10-02T19:15:46.978Z,6.55
2022-10-02T19:18:23.610Z,7.75
2022-10-02T19:21:10.796Z,11.50
2022-10-02T19:24:05.946Z,8.05
2022-10-02T19:26:40.704Z,6.95
2022-10-02T19:29:30.322Z,6.50
2022-10-02T19:32:00.971Z,6.55
2022-10-02T19:34:31.145Z,6.53
2022-10-02T19:37:04.706Z,6.10
2022-10-02T19:39:41.410Z,4.97
2022-10-02T19:42:14.781Z,4.97
2022-10-02T19:44:51.378Z,4.75
2022-10-02T19:47:44.315Z,4.97
2022-10-02T19:50:43.633Z,5.70
2022-10-02T19:53:18.846Z,4.75
2022-10-02T19:55:49.731Z,5.32
2022-10-02T19:58:23.596Z,4.53
2022-10-02T20:00:53.002Z,5.15
2022-10-02T20:03:24.578Z,5.63
2022-10-02T20:06:06.208Z,5.15
2022-10-02T20:08:40.910Z,6.00
2022-10-02T20:11:10.570Z,5.90
2022-10-02T20:13:56.857Z,6.35
2022-10-02T20:16:44.589Z,6.47
2022-10-02T20:19:21.624Z,7.00
2022-10-02T20:22:02.078Z,7.05
2022-10-02T20:24:40.526Z,7.45
2022-10-02T20:27:17.543Z,5.90
2022-10-02T20:29:50.330Z,6.05
2022-10-02T20:32:25.263Z,5.60
2022-10-02T20:35:01.823Z,5.40
2022-10-02T20:37:35.043Z,5.97
2022-10-02T20:40:14.877Z,5.85
2022-10-02T20:43:01.479Z,5.05
2022-10-02T20:45:59.309Z,5.68
2022-10-02T20:49:07.149Z,5.57
2022-10-02T20:51:52.370Z,5.15
2022-10-02T20:54:40.385Z,5.65
2022-10-02T20:57:49.246Z,5.32
2022-10-02T21:00:16.980Z,5.70
2022-10-02T21:03:11.157Z,4.47
2022-10-02T21:06:15.922Z,5.18
2022-10-02T21:08:54.639Z,5.63
2022-10-02T21:11:38.915Z,4.82
2022-10-02T21:14:42.586Z,5.10
2022-10-02T21:17:30.439Z,4.85
2022-10-02T21:20:14.097Z,4.30
2022-10-02T21:23:02.024Z,5.38
2022-10-02T21:25:53.840Z,4.88
2022-10-02T21:28:35.600Z,4.82
2022-10-02T21:31:28.414Z,4.80
2022-10-02T21:34:18.636Z,4.45
2022-10-02T21:37:17.443Z,4.55
2022-10-02T21:39:59.657Z,4.82
2022-10-02T21:42:50.490Z,5.78
2022-10-02T21:45:34.713Z,5.72
2022-10-02T21:48:26.130Z,6.10
2022-10-02T21:51:35.352Z,6.20
2022-10-02T21:54:14.061Z,6.72
2022-10-02T21:57:10.615Z,5.93
2022-10-02T22:00:04.665Z,6.07
2022-10-02T22:02:53.880Z,5.35
2022-10-02T22:05:51.388Z,6.28
2022-10-02T22:08:20.880Z,6.22
2022-10-02T22:11:05.871Z,5.50
2022-10-02T22:13:43.295Z,5.65
2022-10-02T22:16:22.172Z,5.07
2022-10-02T22:19:04.822Z,5.88
2022-10-02T22:21:57.347Z,5.82
2022-10-02T22:24:49.057Z,5.55
2022-10-02T22:27:23.960Z,5.47
2022-10-02T22:29:52.111Z,6.07
2022-10-02T22:32:49.587Z,6.00
2022-10-02T22:35:17.657Z,5.30
2022-10-02T22:38:21.655Z,5.80
2022-10-02T22:40:56.007Z,6.05
2022-10-02T22:43:31.637Z,5.65
2022-10-02T22:46:07.841Z,5.18
2022-10-02T22:49:05.545Z,5.13
2022-10-02T22:51:44.619Z,6.35
2022-10-02T22:54:21.736Z,4.82
2022-10-02T22:57:04.297Z,5.10
2022-10-02T23:00:23.584Z,5.30
2022-10-02T23:02:57.017Z,4.75
2022-10-02T23:05:33.378Z,5.18
2022-10-02T23:08:24.408Z,6.07
2022-10-02T23:11:02.168Z,5.20
2022-10-02T23:13:35.571Z,5.20
2022-10-02T23:16:12.866Z,5.35
2022-10-02T23:18:49.327Z,5.00
2022-10-02T23:21:28.443Z,5.35
2022-10-02T23:23:58.996Z,5.07
2022-10-02T23:26:32.057Z,4.82
2022-10-02T23:29:28.735Z,5.22
2022-10-02T23:32:13.056Z,4.63
2022-10-02T23:34:42.898Z,5.00
2022-10-02T23:37:22.608Z,5.28
2022-10-02T23:40:15.349Z,5.20
2022-10-02T23:42:53.795Z,5.25
2022-10-02T23:45:34.590Z,4.30
2022-10-02T23:48:12.313Z,4.55
2022-10-02T23:50:55.758Z,4.60
